Currently 58°F in Simi Valley, California, USA
58°F
73°F / 46°F
1 mph NE
0.00"
Wednesday, October 20, 2021 9:40 PM PDT

Simi Valley, California Weather Summary
Last 36 Hours

Temperature Winds Hourly Humidity Dewpoint
Time Report Norm Report Norm Max Gusts Precip. Rpt. Norm Rpt. Norm Pressure
1Wed 09:40 PM  58.3°F  64°F  1 mph NE  3 mph  3 mph  0.00"  60%  58%  44°F  49°F  30.03"
Wed 09:00 PM  55.7°F  65°F  calm  3 mph  3 mph  0.00"  62%  57%  42°F  49°F  30.03"
Wed 08:00 PM  58.2°F  67°F  calm  2 mph  6 mph  0.00"  61%  56%  44°F  51°F  30.03"
Wed 07:00 PM  61.3°F  70°F  1 mph NW  3 mph  7 mph  0.00"  59%  54%  46°F  52°F  30.02"
Wed 06:00 PM  64.7°F  74°F  4 mph NW  4 mph  9 mph  0.00"  52%  48%  46°F  52°F  30.01"
Wed 05:00 PM  67.3°F  77°F  6 mph W  6 mph  13 mph  0.00"  47%  43%  46°F  52°F  30.01"
Wed 04:00 PM  68.8°F  79°F  4 mph S  6 mph  17 mph  0.00"  47%  41%  47°F  52°F  29.99"
Wed 03:00 PM  72.4°F  80°F  9 mph NW  7 mph  14 mph  0.00"  43%  39%  48°F  52°F  29.99"
2Wed 02:26 PM  73.2°F  80°F  8 mph NW  7 mph  13 mph  ----  39%  37%  46°F  51°F  29.99"
Wed 02:00 PM  72.6°F  80°F  4 mph NW  7 mph  13 mph  0.00"  37%  37%  44°F  51°F  30.00"
Wed 01:00 PM  70.7°F  79°F  1 mph NW  6 mph  10 mph  0.00"  39%  38%  44°F  50°F  30.02"
Wed 12:00 PM  68.6°F  77°F  1 mph NW  6 mph  8 mph  0.00"  44%  41%  45°F  51°F  30.04"
Wed 11:00 AM  64.3°F  74°F  5 mph S  5 mph  7 mph  0.00"  51%  45%  45°F  51°F  30.06"
Wed 10:00 AM  59.1°F  70°F  calm  4 mph  3 mph  0.00"  69%  53%  49°F  51°F  30.06"
Wed 09:00 AM  51.8°F  65°F  calm  3 mph  3 mph  0.00"  77%  60%  45°F  50°F  30.06"
Wed 08:00 AM  46.2°F  61°F  calm  3 mph  2 mph  0.00"  79%  62%  40°F  47°F  30.04"
3Wed 07:36 AM  45.6°F  60°F  1 mph E  3 mph  2 mph  ----  79%  63%  39°F  47°F  30.04"
Wed 07:00 AM  46.0°F  60°F  calm  3 mph  4 mph  0.00"  78%  62%  39°F  47°F  30.03"
Wed 06:00 AM  47.0°F  61°F  calm  3 mph  4 mph  0.00"  76%  62%  40°F  47°F  30.03"
Wed 05:00 AM  47.1°F  61°F  2 mph NE  3 mph  4 mph  0.00"  76%  61%  40°F  47°F  30.01"
Wed 04:00 AM  48.6°F  61°F  calm  3 mph  6 mph  0.00"  75%  60%  41°F  47°F  30.01"
Wed 03:00 AM  48.8°F  62°F  3 mph NW  3 mph  7 mph  0.00"  76%  60%  41°F  47°F  30.01"
Wed 02:00 AM  48.6°F  62°F  2 mph E  3 mph  6 mph  0.00"  77%  60%  41°F  48°F  30.00"
Wed 01:00 AM  48.8°F  63°F  1 mph E  3 mph  6 mph  0.00"  76%  60%  41°F  48°F  30.00"
Wed 12:00 AM  49.0°F  63°F  2 mph NE  3 mph  6 mph  0.00"  75%  60%  41°F  48°F  30.00"
Tue 11:00 PM  50.3°F  63°F  2 mph NE  3 mph  5 mph  0.00"  74%  59%  42°F  49°F  30.00"
Tue 10:00 PM  52.0°F  64°F  1 mph NE  3 mph  6 mph  0.00"  72%  58%  43°F  49°F  30.00"
Tue 09:00 PM  54.6°F  66°F  calm  2 mph  4 mph  0.00"  69%  57%  44°F  50°F  29.98"
Tue 08:00 PM  58.1°F  68°F  calm  2 mph  8 mph  0.00"  67%  56%  47°F  51°F  29.96"
Tue 07:00 PM  59.5°F  71°F  5 mph NW  3 mph  10 mph  0.00"  68%  53%  48°F  52°F  29.94"
Tue 06:00 PM  63.3°F  74°F  6 mph NW  5 mph  10 mph  0.00"  59%  48%  48°F  52°F  29.92"
Tue 05:00 PM  65.9°F  77°F  6 mph NW  6 mph  14 mph  0.00"  54%  43%  48°F  52°F  29.91"
Tue 04:00 PM  66.7°F  79°F  6 mph NW  7 mph  17 mph  0.00"  53%  40%  48°F  52°F  29.91"
Tue 03:00 PM  69.1°F  80°F  7 mph NW  7 mph  18 mph  0.00"  45%  38%  46°F  52°F  29.92"
Tue 02:00 PM  72.1°F  81°F  2 mph SW  7 mph  9 mph  0.00"  36%  36%  43°F  51°F  29.93"
Tue 01:00 PM  69.9°F  80°F  1 mph S  6 mph  8 mph  0.00"  45%  37%  47°F  50°F  29.95"
Tue 12:00 PM  66.0°F  78°F  calm  6 mph  7 mph  0.00"  51%  40%  47°F  51°F  29.97"
Tue 11:00 AM  62.6°F  75°F  1 mph W  5 mph  7 mph  0.00"  57%  45%  46°F  51°F  29.99"
Tue 10:00 AM  59.1°F  70°F  3 mph S  4 mph  7 mph  0.00"  64%  53%  47°F  52°F  30.00"

  1. Current weather data. No green row appears if the current weather data is also the high or low for the current day.
  2. High temperature for the current day.
  3. Low temperature for the current day.

The Simi Valley, California weather pages are a service of WeatherCurrents.
Copyright ©2021  WeatherCurrents. All rights reserved. - Submit questions and comments - Privacy Policy

This page automatically refreshes every 10 minutes.